sensor_id;sensor_type;location;lat;lon;timestamp;temperature;humidity
19862;DHT22;10093;48.148;8.542;2023-03-05T00:01:23;-1.50;99.90
19862;DHT22;10093;48.148;8.542;2023-03-05T00:03:51;-1.50;99.90
19862;DHT22;10093;48.148;8.542;2023-03-05T00:06:20;-1.70;99.90
19862;DHT22;10093;48.148;8.542;2023-03-05T00:08:47;-1.70;99.90
19862;DHT22;10093;48.148;8.542;2023-03-05T00:11:13;-1.80;99.90
19862;DHT22;10093;48.148;8.542;2023-03-05T00:13:39;-2.00;99.90
19862;DHT22;10093;48.148;8.542;2023-03-05T00:16:08;-2.10;99.90
19862;DHT22;10093;48.148;8.542;2023-03-05T00:18:35;-2.20;99.90
19862;DHT22;10093;48.148;8.542;2023-03-05T00:21:01;-2.30;99.90
19862;DHT22;10093;48.148;8.542;2023-03-05T00:23:27;-2.40;99.90
19862;DHT22;10093;48.148;8.542;2023-03-05T00:25:52;-2.40;99.90
19862;DHT22;10093;48.148;8.542;2023-03-05T00:28:18;-2.40;99.90
19862;DHT22;10093;48.148;8.542;2023-03-05T00:30:44;-2.50;99.90
19862;DHT22;10093;48.148;8.542;2023-03-05T00:33:11;-2.20;99.90
19862;DHT22;10093;48.148;8.542;2023-03-05T00:35:41;-2.20;99.90
19862;DHT22;10093;48.148;8.542;2023-03-05T00:38:08;-2.20;99.90
19862;DHT22;10093;48.148;8.542;2023-03-05T00:40:35;-2.30;99.90
19862;DHT22;10093;48.148;8.542;2023-03-05T00:43:01;-2.30;99.90
19862;DHT22;10093;48.148;8.542;2023-03-05T00:45:27;-2.20;99.90
19862;DHT22;10093;48.148;8.542;2023-03-05T00:47:52;-2.30;99.90
19862;DHT22;10093;48.148;8.542;2023-03-05T00:50:18;-2.30;99.90
19862;DHT22;10093;48.148;8.542;2023-03-05T00:52:44;-2.30;99.90
19862;DHT22;10093;48.148;8.542;2023-03-05T00:55:09;-2.30;99.90
19862;DHT22;10093;48.148;8.542;2023-03-05T00:57:35;-2.40;99.90
19862;DHT22;10093;48.148;8.542;2023-03-05T01:00:00;-2.30;99.90
19862;DHT22;10093;48.148;8.542;2023-03-05T01:02:26;-2.40;99.90
19862;DHT22;10093;48.148;8.542;2023-03-05T01:04:52;-2.40;99.90
19862;DHT22;10093;48.148;8.542;2023-03-05T01:07:17;-2.40;99.90
19862;DHT22;10093;48.148;8.542;2023-03-05T01:09:43;-2.40;99.90
19862;DHT22;10093;48.148;8.542;2023-03-05T01:12:09;-2.20;99.90
19862;DHT22;10093;48.148;8.542;2023-03-05T01:14:34;-2.10;99.90
19862;DHT22;10093;48.148;8.542;2023-03-05T01:17:01;-2.10;99.90
19862;DHT22;10093;48.148;8.542;2023-03-05T01:19:26;-1.90;99.90
19862;DHT22;10093;48.148;8.542;2023-03-05T01:21:52;-1.80;99.90
19862;DHT22;10093;48.148;8.542;2023-03-05T01:24:19;-1.70;99.90
19862;DHT22;10093;48.148;8.542;2023-03-05T01:26:45;-1.70;99.90
19862;DHT22;10093;48.148;8.542;2023-03-05T01:29:10;-1.70;99.90
19862;DHT22;10093;48.148;8.542;2023-03-05T01:31:36;-1.50;99.90
19862;DHT22;10093;48.148;8.542;2023-03-05T01:34:02;-1.50;99.90
19862;DHT22;10093;48.148;8.542;2023-03-05T01:36:27;-1.50;99.90
19862;DHT22;10093;48.148;8.542;2023-03-05T01:38:53;-1.40;99.90
19862;DHT22;10093;48.148;8.542;2023-03-05T01:41:19;-1.20;99.90
19862;DHT22;10093;48.148;8.542;2023-03-05T01:43:46;-1.20;99.90
19862;DHT22;10093;48.148;8.542;2023-03-05T01:46:34;-1.30;99.90
19862;DHT22;10093;48.148;8.542;2023-03-05T01:49:10;-1.20;99.90
19862;DHT22;10093;48.148;8.542;2023-03-05T01:51:58;-1.20;99.90
19862;DHT22;10093;48.148;8.542;2023-03-05T01:54:30;-1.40;99.90
19862;DHT22;10093;48.148;8.542;2023-03-05T01:56:59;-1.50;99.90
19862;DHT22;10093;48.148;8.542;2023-03-05T01:59:26;-1.40;99.90
19862;DHT22;10093;48.148;8.542;2023-03-05T02:01:55;-1.50;99.90
19862;DHT22;10093;48.148;8.542;2023-03-05T02:04:28;-1.50;99.90
19862;DHT22;10093;48.148;8.542;2023-03-05T02:06:55;-1.50;99.90
19862;DHT22;10093;48.148;8.542;2023-03-05T02:09:21;-1.60;99.90
19862;DHT22;10093;48.148;8.542;2023-03-05T02:11:50;-1.70;99.90
19862;DHT22;10093;48.148;8.542;2023-03-05T02:14:16;-1.60;99.90
19862;DHT22;10093;48.148;8.542;2023-03-05T02:16:41;-1.60;99.90
19862;DHT22;10093;48.148;8.542;2023-03-05T02:19:09;-1.70;99.90
19862;DHT22;10093;48.148;8.542;2023-03-05T02:21:41;-1.60;99.90
19862;DHT22;10093;48.148;8.542;2023-03-05T02:24:16;-1.50;99.90
19862;DHT22;10093;48.148;8.542;2023-03-05T02:26:43;-1.40;99.90
19862;DHT22;10093;48.148;8.542;2023-03-05T02:29:13;-1.60;99.90
19862;DHT22;10093;48.148;8.542;2023-03-05T02:31:39;-1.70;99.90
19862;DHT22;10093;48.148;8.542;2023-03-05T02:34:05;-1.80;99.90
19862;DHT22;10093;48.148;8.542;2023-03-05T02:36:31;-1.70;99.90
19862;DHT22;10093;48.148;8.542;2023-03-05T02:38:57;-1.80;99.90
19862;DHT22;10093;48.148;8.542;2023-03-05T02:41:23;-1.80;99.90
19862;DHT22;10093;48.148;8.542;2023-03-05T02:43:49;-1.90;99.90
19862;DHT22;10093;48.148;8.542;2023-03-05T02:46:14;-1.90;99.90
19862;DHT22;10093;48.148;8.542;2023-03-05T02:48:40;-1.90;99.90
19862;DHT22;10093;48.148;8.542;2023-03-05T02:51:06;-1.90;99.90
19862;DHT22;10093;48.148;8.542;2023-03-05T02:53:32;-1.70;99.90
19862;DHT22;10093;48.148;8.542;2023-03-05T02:55:58;-1.70;99.90
19862;DHT22;10093;48.148;8.542;2023-03-05T02:58:23;-1.70;99.90
19862;DHT22;10093;48.148;8.542;2023-03-05T03:00:49;-1.70;99.90
19862;DHT22;10093;48.148;8.542;2023-03-05T03:03:15;-1.70;99.90
19862;DHT22;10093;48.148;8.542;2023-03-05T03:05:40;-1.70;99.90
19862;DHT22;10093;48.148;8.542;2023-03-05T03:08:06;-1.50;99.90
19862;DHT22;10093;48.148;8.542;2023-03-05T03:10:32;-1.50;99.90
19862;DHT22;10093;48.148;8.542;2023-03-05T03:12:58;-1.40;99.90
19862;DHT22;10093;48.148;8.542;2023-03-05T03:15:24;-1.20;99.90
19862;DHT22;10093;48.148;8.542;2023-03-05T03:17:50;-1.20;99.90
19862;DHT22;10093;48.148;8.542;2023-03-05T03:20:16;-1.30;99.90
19862;DHT22;10093;48.148;8.542;2023-03-05T03:22:43;-1.40;99.90
19862;DHT22;10093;48.148;8.542;2023-03-05T03:25:12;-1.50;99.90
19862;DHT22;10093;48.148;8.542;2023-03-05T03:27:38;-1.50;99.90
19862;DHT22;10093;48.148;8.542;2023-03-05T03:30:04;-1.60;99.90
19862;DHT22;10093;48.148;8.542;2023-03-05T03:32:31;-1.50;99.90
19862;DHT22;10093;48.148;8.542;2023-03-05T03:34:57;-1.50;99.90
19862;DHT22;10093;48.148;8.542;2023-03-05T03:37:23;-1.40;99.90
19862;DHT22;10093;48.148;8.542;2023-03-05T03:39:48;-1.00;99.90
19862;DHT22;10093;48.148;8.542;2023-03-05T03:42:18;-0.90;99.90
19862;DHT22;10093;48.148;8.542;2023-03-05T03:44:43;-0.80;99.90
19862;DHT22;10093;48.148;8.542;2023-03-05T03:47:09;-0.70;99.90
19862;DHT22;10093;48.148;8.542;2023-03-05T03:49:35;-0.80;99.90
19862;DHT22;10093;48.148;8.542;2023-03-05T03:52:00;-0.90;99.90
19862;DHT22;10093;48.148;8.542;2023-03-05T03:54:26;-0.70;99.90
19862;DHT22;10093;48.148;8.542;2023-03-05T03:56:52;-0.60;99.90
19862;DHT22;10093;48.148;8.542;2023-03-05T03:59:17;-0.70;99.90
19862;DHT22;10093;48.148;8.542;2023-03-05T04:01:43;-0.80;99.90
19862;DHT22;10093;48.148;8.542;2023-03-05T04:04:11;-1.00;99.90
19862;DHT22;10093;48.148;8.542;2023-03-05T04:06:37;-1.10;99.90
19862;DHT22;10093;48.148;8.542;2023-03-05T04:09:03;-1.00;99.90
19862;DHT22;10093;48.148;8.542;2023-03-05T04:11:30;-1.10;99.90
19862;DHT22;10093;48.148;8.542;2023-03-05T04:13:55;-1.20;99.90
19862;DHT22;10093;48.148;8.542;2023-03-05T04:16:21;-1.40;99.90
19862;DHT22;10093;48.148;8.542;2023-03-05T04:18:47;-1.40;99.90
19862;DHT22;10093;48.148;8.542;2023-03-05T04:21:13;-1.40;99.90
19862;DHT22;10093;48.148;8.542;2023-03-05T04:23:39;-1.40;99.90
19862;DHT22;10093;48.148;8.542;2023-03-05T04:26:04;-1.50;99.90
19862;DHT22;10093;48.148;8.542;2023-03-05T04:28:40;-1.40;99.90
19862;DHT22;10093;48.148;8.542;2023-03-05T04:31:05;-1.30;99.90
19862;DHT22;10093;48.148;8.542;2023-03-05T04:33:31;-1.20;99.90
19862;DHT22;10093;48.148;8.542;2023-03-05T04:35:56;-1.20;99.90
19862;DHT22;10093;48.148;8.542;2023-03-05T04:38:22;-1.30;99.90
19862;DHT22;10093;48.148;8.542;2023-03-05T04:40:48;-1.40;99.90
19862;DHT22;10093;48.148;8.542;2023-03-05T04:43:13;-1.20;99.90
19862;DHT22;10093;48.148;8.542;2023-03-05T04:45:40;-1.30;99.90
19862;DHT22;10093;48.148;8.542;2023-03-05T04:48:07;-1.40;99.90
19862;DHT22;10093;48.148;8.542;2023-03-05T04:50:33;-1.40;99.90
19862;DHT22;10093;48.148;8.542;2023-03-05T04:52:58;-1.50;99.90
19862;DHT22;10093;48.148;8.542;2023-03-05T04:55:25;-1.50;99.90
19862;DHT22;10093;48.148;8.542;2023-03-05T04:57:51;-1.50;99.90
19862;DHT22;10093;48.148;8.542;2023-03-05T05:00:17;-1.50;99.90
19862;DHT22;10093;48.148;8.542;2023-03-05T05:02:45;-1.50;99.90
19862;DHT22;10093;48.148;8.542;2023-03-05T05:05:12;-1.40;99.90
19862;DHT22;10093;48.148;8.542;2023-03-05T05:07:38;-1.30;99.90
19862;DHT22;10093;48.148;8.542;2023-03-05T05:10:04;-1.00;99.90
19862;DHT22;10093;48.148;8.542;2023-03-05T05:12:32;-1.00;99.90
19862;DHT22;10093;48.148;8.542;2023-03-05T05:14:58;-1.10;99.90
19862;DHT22;10093;48.148;8.542;2023-03-05T05:17:24;-1.20;99.90
19862;DHT22;10093;48.148;8.542;2023-03-05T05:19:50;-1.20;99.90
19862;DHT22;10093;48.148;8.542;2023-03-05T05:22:16;-1.20;99.90
19862;DHT22;10093;48.148;8.542;2023-03-05T05:24:41;-1.00;99.90
19862;DHT22;10093;48.148;8.542;2023-03-05T05:27:07;-1.00;99.90
19862;DHT22;10093;48.148;8.542;2023-03-05T05:29:32;-0.70;99.90
19862;DHT22;10093;48.148;8.542;2023-03-05T05:31:58;-0.70;99.90
19862;DHT22;10093;48.148;8.542;2023-03-05T05:34:24;-0.70;99.90
19862;DHT22;10093;48.148;8.542;2023-03-05T05:36:50;-0.80;99.90
19862;DHT22;10093;48.148;8.542;2023-03-05T05:39:16;-0.90;99.90
19862;DHT22;10093;48.148;8.542;2023-03-05T05:41:42;-1.00;99.90
19862;DHT22;10093;48.148;8.542;2023-03-05T05:44:08;-1.10;99.90
19862;DHT22;10093;48.148;8.542;2023-03-05T05:46:33;-1.10;99.90
19862;DHT22;10093;48.148;8.542;2023-03-05T05:48:59;-1.00;99.90
19862;DHT22;10093;48.148;8.542;2023-03-05T05:51:24;-0.90;99.90
19862;DHT22;10093;48.148;8.542;2023-03-05T05:53:50;-0.80;99.90
19862;DHT22;10093;48.148;8.542;2023-03-05T05:56:16;-0.80;99.90
19862;DHT22;10093;48.148;8.542;2023-03-05T05:58:43;-0.60;99.90
19862;DHT22;10093;48.148;8.542;2023-03-05T06:01:24;-0.50;99.90
19862;DHT22;10093;48.148;8.542;2023-03-05T06:03:50;-0.70;99.90
19862;DHT22;10093;48.148;8.542;2023-03-05T06:06:18;-0.80;99.90
19862;DHT22;10093;48.148;8.542;2023-03-05T06:08:44;-0.90;99.90
19862;DHT22;10093;48.148;8.542;2023-03-05T06:11:10;-0.90;99.90
19862;DHT22;10093;48.148;8.542;2023-03-05T06:13:36;-1.00;99.90
19862;DHT22;10093;48.148;8.542;2023-03-05T06:16:05;-1.00;99.90
19862;DHT22;10093;48.148;8.542;2023-03-05T06:18:33;-1.00;99.90
19862;DHT22;10093;48.148;8.542;2023-03-05T06:21:01;-1.00;99.90
19862;DHT22;10093;48.148;8.542;2023-03-05T06:23:27;-1.00;99.90
19862;DHT22;10093;48.148;8.542;2023-03-05T06:25:54;-1.00;99.90
19862;DHT22;10093;48.148;8.542;2023-03-05T06:28:22;-1.10;99.90
19862;DHT22;10093;48.148;8.542;2023-03-05T06:30:48;-1.10;99.90
19862;DHT22;10093;48.148;8.542;2023-03-05T06:33:14;-1.20;99.90
19862;DHT22;10093;48.148;8.542;2023-03-05T06:35:40;-1.20;99.90
19862;DHT22;10093;48.148;8.542;2023-03-05T06:38:07;-1.20;99.90
19862;DHT22;10093;48.148;8.542;2023-03-05T06:40:33;-1.20;99.90
19862;DHT22;10093;48.148;8.542;2023-03-05T06:42:58;-1.20;99.90
19862;DHT22;10093;48.148;8.542;2023-03-05T06:45:24;-1.20;99.90
19862;DHT22;10093;48.148;8.542;2023-03-05T06:47:50;-1.20;99.90
19862;DHT22;10093;48.148;8.542;2023-03-05T06:50:15;-1.10;99.90
19862;DHT22;10093;48.148;8.542;2023-03-05T06:52:41;-1.20;99.90
19862;DHT22;10093;48.148;8.542;2023-03-05T06:55:08;-1.20;99.90
19862;DHT22;10093;48.148;8.542;2023-03-05T06:57:35;-1.10;99.90
19862;DHT22;10093;48.148;8.542;2023-03-05T07:00:03;-1.00;99.90
19862;DHT22;10093;48.148;8.542;2023-03-05T07:02:36;-1.10;99.90
19862;DHT22;10093;48.148;8.542;2023-03-05T07:05:03;-1.10;99.90
19862;DHT22;10093;48.148;8.542;2023-03-05T07:07:29;-1.10;99.90
19862;DHT22;10093;48.148;8.542;2023-03-05T07:09:55;-1.00;99.90
19862;DHT22;10093;48.148;8.542;2023-03-05T07:12:20;-0.90;99.90
19862;DHT22;10093;48.148;8.542;2023-03-05T07:14:46;-0.90;99.90
19862;DHT22;10093;48.148;8.542;2023-03-05T07:17:12;-0.90;99.90
19862;DHT22;10093;48.148;8.542;2023-03-05T07:19:41;-0.90;99.90
19862;DHT22;10093;48.148;8.542;2023-03-05T07:22:07;-0.90;99.90
19862;DHT22;10093;48.148;8.542;2023-03-05T07:24:33;-0.90;99.90
19862;DHT22;10093;48.148;8.542;2023-03-05T07:26:58;-0.90;99.90
19862;DHT22;10093;48.148;8.542;2023-03-05T07:29:27;-0.90;99.90
19862;DHT22;10093;48.148;8.542;2023-03-05T07:31:53;-0.80;99.90
19862;DHT22;10093;48.148;8.542;2023-03-05T07:34:20;-0.80;99.90
19862;DHT22;10093;48.148;8.542;2023-03-05T07:36:50;-0.70;99.90
19862;DHT22;10093;48.148;8.542;2023-03-05T07:39:16;-0.70;99.90
19862;DHT22;10093;48.148;8.542;2023-03-05T07:41:44;-0.60;99.90
19862;DHT22;10093;48.148;8.542;2023-03-05T07:44:09;-0.50;99.90
19862;DHT22;10093;48.148;8.542;2023-03-05T07:46:35;-0.40;99.90
19862;DHT22;10093;48.148;8.542;2023-03-05T07:49:01;-0.50;99.90
19862;DHT22;10093;48.148;8.542;2023-03-05T07:51:27;-0.50;99.90
19862;DHT22;10093;48.148;8.542;2023-03-05T07:53:54;-0.50;99.90
19862;DHT22;10093;48.148;8.542;2023-03-05T07:56:26;-0.40;99.90
19862;DHT22;10093;48.148;8.542;2023-03-05T07:58:53;0.10;99.90
19862;DHT22;10093;48.148;8.542;2023-03-05T08:01:18;0.10;99.90
19862;DHT22;10093;48.148;8.542;2023-03-05T08:03:44;0.30;99.90
19862;DHT22;10093;48.148;8.542;2023-03-05T08:06:11;0.40;99.90
19862;DHT22;10093;48.148;8.542;2023-03-05T08:08:37;0.40;99.90
19862;DHT22;10093;48.148;8.542;2023-03-05T08:11:08;0.40;99.90
19862;DHT22;10093;48.148;8.542;2023-03-05T08:13:34;0.60;99.90
19862;DHT22;10093;48.148;8.542;2023-03-05T08:16:10;0.90;99.90
19862;DHT22;10093;48.148;8.542;2023-03-05T08:18:36;1.00;99.90
19862;DHT22;10093;48.148;8.542;2023-03-05T08:21:02;1.00;99.90
19862;DHT22;10093;48.148;8.542;2023-03-05T08:23:28;1.10;99.90
19862;DHT22;10093;48.148;8.542;2023-03-05T08:25:54;1.00;99.90
19862;DHT22;10093;48.148;8.542;2023-03-05T08:28:19;1.20;99.90
19862;DHT22;10093;48.148;8.542;2023-03-05T08:30:46;1.00;99.90
19862;DHT22;10093;48.148;8.542;2023-03-05T08:33:13;1.30;99.90
19862;DHT22;10093;48.148;8.542;2023-03-05T08:35:39;1.00;99.90
19862;DHT22;10093;48.148;8.542;2023-03-05T08:38:04;1.20;99.90
19862;DHT22;10093;48.148;8.542;2023-03-05T08:40:30;0.80;99.90
19862;DHT22;10093;48.148;8.542;2023-03-05T08:42:57;0.70;99.90
19862;DHT22;10093;48.148;8.542;2023-03-05T08:45:25;0.60;99.90
19862;DHT22;10093;48.148;8.542;2023-03-05T08:47:52;0.50;99.90
19862;DHT22;10093;48.148;8.542;2023-03-05T08:50:18;0.80;99.90
19862;DHT22;10093;48.148;8.542;2023-03-05T08:52:43;0.90;99.90
19862;DHT22;10093;48.148;8.542;2023-03-05T08:55:10;0.80;99.90
19862;DHT22;10093;48.148;8.542;2023-03-05T08:57:36;0.80;99.90
19862;DHT22;10093;48.148;8.542;2023-03-05T09:00:02;0.60;99.90
19862;DHT22;10093;48.148;8.542;2023-03-05T09:02:28;0.80;99.90
19862;DHT22;10093;48.148;8.542;2023-03-05T09:04:54;0.90;99.90
19862;DHT22;10093;48.148;8.542;2023-03-05T09:07:20;1.40;99.90
19862;DHT22;10093;48.148;8.542;2023-03-05T09:09:45;1.40;99.90
19862;DHT22;10093;48.148;8.542;2023-03-05T09:12:11;1.10;99.90
19862;DHT22;10093;48.148;8.542;2023-03-05T09:14:38;1.00;99.90
19862;DHT22;10093;48.148;8.542;2023-03-05T09:17:04;1.10;99.90
19862;DHT22;10093;48.148;8.542;2023-03-05T09:19:30;1.00;99.90
19862;DHT22;10093;48.148;8.542;2023-03-05T09:21:55;1.10;99.90
19862;DHT22;10093;48.148;8.542;2023-03-05T09:24:21;1.70;99.90
19862;DHT22;10093;48.148;8.542;2023-03-05T09:26:47;1.80;99.90
19862;DHT22;10093;48.148;8.542;2023-03-05T09:29:12;1.90;99.90
19862;DHT22;10093;48.148;8.542;2023-03-05T09:31:38;2.00;99.90
19862;DHT22;10093;48.148;8.542;2023-03-05T09:34:05;2.20;99.90
19862;DHT22;10093;48.148;8.542;2023-03-05T09:36:32;2.40;99.90
19862;DHT22;10093;48.148;8.542;2023-03-05T09:38:58;2.30;99.90
19862;DHT22;10093;48.148;8.542;2023-03-05T09:41:37;2.50;99.90
19862;DHT22;10093;48.148;8.542;2023-03-05T09:45:11;2.70;99.90
19862;DHT22;10093;48.148;8.542;2023-03-05T09:50:07;2.50;99.90
19862;DHT22;10093;48.148;8.542;2023-03-05T09:52:40;2.90;99.90
19862;DHT22;10093;48.148;8.542;2023-03-05T09:55:13;3.30;99.90
19862;DHT22;10093;48.148;8.542;2023-03-05T09:57:53;3.60;99.90
19862;DHT22;10093;48.148;8.542;2023-03-05T10:03:00;3.30;99.90
19862;DHT22;10093;48.148;8.542;2023-03-05T10:05:44;3.50;99.90
19862;DHT22;10093;48.148;8.542;2023-03-05T10:08:12;3.00;99.90
19862;DHT22;10093;48.148;8.542;2023-03-05T10:10:47;3.50;99.90
19862;DHT22;10093;48.148;8.542;2023-03-05T10:13:31;3.70;99.90
19862;DHT22;10093;48.148;8.542;2023-03-05T10:21:41;4.00;99.90
19862;DHT22;10093;48.148;8.542;2023-03-05T10:25:16;3.80;99.90
19862;DHT22;10093;48.148;8.542;2023-03-05T10:35:45;4.00;99.90
19862;DHT22;10093;48.148;8.542;2023-03-05T10:38:30;3.90;99.90
19862;DHT22;10093;48.148;8.542;2023-03-05T10:41:01;4.70;99.90
19862;DHT22;10093;48.148;8.542;2023-03-05T10:45:57;5.20;99.90
19862;DHT22;10093;48.148;8.542;2023-03-05T10:48:44;5.60;99.90
19862;DHT22;10093;48.148;8.542;2023-03-05T10:51:27;5.40;99.90
19862;DHT22;10093;48.148;8.542;2023-03-05T10:53:58;5.50;99.90
19862;DHT22;10093;48.148;8.542;2023-03-05T10:56:26;5.20;99.90
19862;DHT22;10093;48.148;8.542;2023-03-05T10:58:52;5.30;99.90
19862;DHT22;10093;48.148;8.542;2023-03-05T11:01:23;4.50;99.90
19862;DHT22;10093;48.148;8.542;2023-03-05T11:06:42;4.00;99.90
19862;DHT22;10093;48.148;8.542;2023-03-05T11:12:11;4.80;99.90
19862;DHT22;10093;48.148;8.542;2023-03-05T11:15:13;4.50;99.90
19862;DHT22;10093;48.148;8.542;2023-03-05T11:18:06;3.80;99.90
19862;DHT22;10093;48.148;8.542;2023-03-05T11:20:35;3.50;99.90
19862;DHT22;10093;48.148;8.542;2023-03-05T11:23:08;3.50;99.90
19862;DHT22;10093;48.148;8.542;2023-03-05T11:25:48;4.00;99.90
19862;DHT22;10093;48.148;8.542;2023-03-05T11:28:20;4.20;99.90
19862;DHT22;10093;48.148;8.542;2023-03-05T11:30:57;3.60;99.90
19862;DHT22;10093;48.148;8.542;2023-03-05T11:33:24;4.10;99.90
19862;DHT22;10093;48.148;8.542;2023-03-05T11:35:52;4.90;99.90
19862;DHT22;10093;48.148;8.542;2023-03-05T11:38:25;5.20;99.90
19862;DHT22;10093;48.148;8.542;2023-03-05T11:40:53;5.80;99.90
19862;DHT22;10093;48.148;8.542;2023-03-05T11:43:23;5.40;99.90
19862;DHT22;10093;48.148;8.542;2023-03-05T11:46:02;5.20;99.90
19862;DHT22;10093;48.148;8.542;2023-03-05T11:48:33;4.30;99.90
19862;DHT22;10093;48.148;8.542;2023-03-05T11:51:02;4.50;99.90
19862;DHT22;10093;48.148;8.542;2023-03-05T11:53:34;5.00;99.90
19862;DHT22;10093;48.148;8.542;2023-03-05T11:56:35;5.50;99.90
19862;DHT22;10093;48.148;8.542;2023-03-05T11:59:22;5.70;99.90
19862;DHT22;10093;48.148;8.542;2023-03-05T12:01:53;6.00;99.90
19862;DHT22;10093;48.148;8.542;2023-03-05T12:04:19;6.00;99.90
19862;DHT22;10093;48.148;8.542;2023-03-05T12:06:51;6.10;99.90
19862;DHT22;10093;48.148;8.542;2023-03-05T12:09:37;4.90;99.90
19862;DHT22;10093;48.148;8.542;2023-03-05T12:15:00;4.40;99.90
19862;DHT22;10093;48.148;8.542;2023-03-05T12:17:32;4.70;99.90
19862;DHT22;10093;48.148;8.542;2023-03-05T12:22:40;3.50;99.90
19862;DHT22;10093;48.148;8.542;2023-03-05T12:25:49;3.60;99.90
19862;DHT22;10093;48.148;8.542;2023-03-05T12:33:40;4.00;99.90
19862;DHT22;10093;48.148;8.542;2023-03-05T12:38:48;4.40;99.90
19862;DHT22;10093;48.148;8.542;2023-03-05T12:46:40;4.20;99.90
19862;DHT22;10093;48.148;8.542;2023-03-05T12:51:54;4.20;99.90
19862;DHT22;10093;48.148;8.542;2023-03-05T12:57:33;4.60;99.90
19862;DHT22;10093;48.148;8.542;2023-03-05T13:00:14;4.90;99.90
19862;DHT22;10093;48.148;8.542;2023-03-05T13:02:49;5.50;99.90
19862;DHT22;10093;48.148;8.542;2023-03-05T13:05:24;5.50;99.90
19862;DHT22;10093;48.148;8.542;2023-03-05T13:07:51;5.80;99.90
19862;DHT22;10093;48.148;8.542;2023-03-05T13:10:26;6.00;99.90
19862;DHT22;10093;48.148;8.542;2023-03-05T13:12:54;6.10;99.90
19862;DHT22;10093;48.148;8.542;2023-03-05T13:15:22;6.10;99.90
19862;DHT22;10093;48.148;8.542;2023-03-05T13:18:01;5.90;99.90
19862;DHT22;10093;48.148;8.542;2023-03-05T13:20:37;6.10;99.90
19862;DHT22;10093;48.148;8.542;2023-03-05T13:23:18;6.40;99.90
19862;DHT22;10093;48.148;8.542;2023-03-05T13:26:08;6.20;99.90
19862;DHT22;10093;48.148;8.542;2023-03-05T13:28:36;6.10;99.90
19862;DHT22;10093;48.148;8.542;2023-03-05T13:33:36;5.60;99.90
19862;DHT22;10093;48.148;8.542;2023-03-05T13:36:03;5.60;99.90
19862;DHT22;10093;48.148;8.542;2023-03-05T13:38:42;6.10;99.90
19862;DHT22;10093;48.148;8.542;2023-03-05T13:41:21;6.20;99.90
19862;DHT22;10093;48.148;8.542;2023-03-05T13:43:56;6.30;99.90
19862;DHT22;10093;48.148;8.542;2023-03-05T13:48:48;6.70;99.90
19862;DHT22;10093;48.148;8.542;2023-03-05T13:51:14;6.90;99.90
19862;DHT22;10093;48.148;8.542;2023-03-05T13:53:40;6.90;99.90
19862;DHT22;10093;48.148;8.542;2023-03-05T13:56:07;7.00;99.90
19862;DHT22;10093;48.148;8.542;2023-03-05T14:06:29;6.60;99.90
19862;DHT22;10093;48.148;8.542;2023-03-05T14:09:05;6.70;99.90
19862;DHT22;10093;48.148;8.542;2023-03-05T14:11:31;6.90;99.90
19862;DHT22;10093;48.148;8.542;2023-03-05T14:14:08;7.30;99.90
19862;DHT22;10093;48.148;8.542;2023-03-05T14:16:39;7.60;99.90
19862;DHT22;10093;48.148;8.542;2023-03-05T14:19:04;7.60;99.90
19862;DHT22;10093;48.148;8.542;2023-03-05T14:21:47;7.70;99.90
19862;DHT22;10093;48.148;8.542;2023-03-05T14:24:24;7.00;99.90
19862;DHT22;10093;48.148;8.542;2023-03-05T14:26:54;6.70;99.90
19862;DHT22;10093;48.148;8.542;2023-03-05T14:29:25;6.50;99.90
19862;DHT22;10093;48.148;8.542;2023-03-05T14:34:29;6.40;99.90
19862;DHT22;10093;48.148;8.542;2023-03-05T14:36:59;6.40;99.90
19862;DHT22;10093;48.148;8.542;2023-03-05T14:39:31;6.30;99.90
19862;DHT22;10093;48.148;8.542;2023-03-05T14:42:23;6.30;99.90
19862;DHT22;10093;48.148;8.542;2023-03-05T14:44:49;6.10;99.90
19862;DHT22;10093;48.148;8.542;2023-03-05T14:47:15;5.70;99.90
19862;DHT22;10093;48.148;8.542;2023-03-05T14:49:41;5.70;99.90
19862;DHT22;10093;48.148;8.542;2023-03-05T14:52:07;5.70;99.90
19862;DHT22;10093;48.148;8.542;2023-03-05T14:54:36;5.70;99.90
19862;DHT22;10093;48.148;8.542;2023-03-05T14:57:03;4.90;99.90
19862;DHT22;10093;48.148;8.542;2023-03-05T14:59:29;4.50;99.90
19862;DHT22;10093;48.148;8.542;2023-03-05T15:01:55;4.70;99.90
19862;DHT22;10093;48.148;8.542;2023-03-05T15:04:22;4.80;99.90
19862;DHT22;10093;48.148;8.542;2023-03-05T15:06:48;4.60;99.90
19862;DHT22;10093;48.148;8.542;2023-03-05T15:09:17;4.90;99.90
19862;DHT22;10093;48.148;8.542;2023-03-05T15:11:44;4.90;99.90
19862;DHT22;10093;48.148;8.542;2023-03-05T15:14:10;4.90;99.90
19862;DHT22;10093;48.148;8.542;2023-03-05T15:16:37;4.90;99.90
19862;DHT22;10093;48.148;8.542;2023-03-05T15:19:04;5.00;99.90
19862;DHT22;10093;48.148;8.542;2023-03-05T15:21:30;5.00;99.90
19862;DHT22;10093;48.148;8.542;2023-03-05T15:23:55;5.00;99.90
19862;DHT22;10093;48.148;8.542;2023-03-05T15:26:21;5.00;99.90
19862;DHT22;10093;48.148;8.542;2023-03-05T15:28:47;5.10;99.90
19862;DHT22;10093;48.148;8.542;2023-03-05T15:31:15;5.10;99.90
19862;DHT22;10093;48.148;8.542;2023-03-05T15:33:41;4.90;99.90
19862;DHT22;10093;48.148;8.542;2023-03-05T15:36:07;4.90;99.90
19862;DHT22;10093;48.148;8.542;2023-03-05T15:38:34;4.80;99.90
19862;DHT22;10093;48.148;8.542;2023-03-05T15:40:59;4.90;99.90
19862;DHT22;10093;48.148;8.542;2023-03-05T15:43:25;5.00;99.90
19862;DHT22;10093;48.148;8.542;2023-03-05T15:45:51;5.10;99.90
19862;DHT22;10093;48.148;8.542;2023-03-05T15:48:16;5.00;99.90
19862;DHT22;10093;48.148;8.542;2023-03-05T15:50:42;4.80;99.90
19862;DHT22;10093;48.148;8.542;2023-03-05T15:53:09;4.80;99.90
19862;DHT22;10093;48.148;8.542;2023-03-05T15:55:37;4.90;99.90
19862;DHT22;10093;48.148;8.542;2023-03-05T15:58:03;4.60;99.90
19862;DHT22;10093;48.148;8.542;2023-03-05T16:00:30;4.50;99.90
19862;DHT22;10093;48.148;8.542;2023-03-05T16:02:56;3.90;99.90
19862;DHT22;10093;48.148;8.542;2023-03-05T16:05:22;4.10;99.90
19862;DHT22;10093;48.148;8.542;2023-03-05T16:07:48;4.10;99.90
19862;DHT22;10093;48.148;8.542;2023-03-05T16:10:18;4.10;99.90
19862;DHT22;10093;48.148;8.542;2023-03-05T16:12:47;4.30;99.90
19862;DHT22;10093;48.148;8.542;2023-03-05T16:15:17;4.10;99.90
19862;DHT22;10093;48.148;8.542;2023-03-05T16:17:45;4.10;99.90
19862;DHT22;10093;48.148;8.542;2023-03-05T16:20:13;4.30;99.90
19862;DHT22;10093;48.148;8.542;2023-03-05T16:22:39;4.00;99.90
19862;DHT22;10093;48.148;8.542;2023-03-05T16:25:05;3.90;99.90
19862;DHT22;10093;48.148;8.542;2023-03-05T16:27:30;3.90;99.90
19862;DHT22;10093;48.148;8.542;2023-03-05T16:29:56;3.70;99.90
19862;DHT22;10093;48.148;8.542;2023-03-05T16:32:23;3.60;99.90
19862;DHT22;10093;48.148;8.542;2023-03-05T16:34:49;3.40;99.90
19862;DHT22;10093;48.148;8.542;2023-03-05T16:37:20;3.40;99.90
19862;DHT22;10093;48.148;8.542;2023-03-05T16:39:46;3.30;99.90
19862;DHT22;10093;48.148;8.542;2023-03-05T16:42:12;3.30;99.90
19862;DHT22;10093;48.148;8.542;2023-03-05T16:44:42;3.20;99.90
19862;DHT22;10093;48.148;8.542;2023-03-05T16:47:08;3.10;99.90
19862;DHT22;10093;48.148;8.542;2023-03-05T16:49:36;3.20;99.90
19862;DHT22;10093;48.148;8.542;2023-03-05T16:52:02;3.30;99.90
19862;DHT22;10093;48.148;8.542;2023-03-05T16:54:29;3.50;99.90